Airfield :
LOGIN :

Register | Disclaimer

   EN    FR    IT 

 










Legend :    VFR   Marginal VFR   IFR   Intensive IFR   Very Intensive IFR
Visi :
Ceiling :
>= 8 km
>= 3000ft
5 to 8 km
1000 to 3000 ft
1500m to 5 km
500 to 1000 ft
800 to 1500m
200 to 500 ft
< 800m
< 200 ft
Symbols :   Thunderstorms  Fog  Heavy snow  Heavy precipitations  Wind > 20 kt
SIGMETs :     Misc.  Thunderstorms  Icing  Turbulence  Mountain Waves  Volcanic Ashes







- Airport Elevation : 202 ft
- IATA code : LGW
- Download approach charts


EGKK - London Gatwick

CURRENT METAR :
  • 212350Z VRB01KT CAVOK 13/10 Q1014

EXPIRED METARs :
  • 212320Z VRB01KT CAVOK 13/11 Q1014
  • 212250Z VRB03KT CAVOK 12/10 Q1014
  • 212220Z 16001KT CAVOK 13/11 Q1014
  • 212150Z VRB01KT CAVOK 15/12 Q1014
  • 212120Z VRB03G17KT CAVOK 16/12 Q1014

TAF TAF EGKK
Valid from the 22 at 00:00 until the 23 at 06:00 UTC


212301Z 2200/2306 35006KT 9999 FEW045
PROB30
TEMPO 2200/2208 8000 SHRA
PROB30
TEMPO 2214/2219 5000 +SHRA
PROB30
TEMPO 2300/2306 8000
No reported NOTAMs for that airfield.



MET'MAP, your aeronautical weather chart ! - Copyright ORBIFLY December 2007 - Disclaimer

ORBIFLY MET'MAP TEAM :

Programming & Development : Alexandra Zaïnal
Concept & Development : Baudouin d'Aumeries
Co-Development & Prog : Marc-Olivier Méhu
Technical & hardware support : Manuel Goepfert

Contact : metmap@orbifly.com




SOURCES & CREDITS :

   NOAA